Overview Statistics Trail Chart Weather Telemetry Raw packets
 

This is the latest recevied weather packets stored in our database for station/object K7KAR-2. If no packets are shown the sender has not sent any weather packets the latest 10 day(s).

<< 1 2 3 4 >>
Time Temp. Humidity Pressure Rain* Wind** Luminosity Snow
1788627377 22.78° C 28% 1018.1 hPa 0 mm - 745 W/m² -
1788627073 22.78° C 29% 1018.1 hPa 0 mm - 720 W/m² -
1788626768 23.33° C 28% 1018 hPa 0 mm - 703 W/m² -
1788626467 23.33° C 28% 1018 hPa 0 mm - 688 W/m² -
1788626164 22.78° C 29% 1017.8 hPa 0 mm - 676 W/m² -
1788625860 23.33° C 27% 1017.8 hPa 0 mm - 660 W/m² -
1788625556 22.78° C 30% 1017.9 hPa 0 mm - 644 W/m² -
1788625255 22.78° C 30% 1017.9 hPa 0 mm - 630 W/m² -
1788624949 22.22° C 31% 1017.9 hPa 0 mm - 616 W/m² -
1788624647 22.78° C 31% 1017.9 hPa 0 mm - 602 W/m² -
1788624346 22.22° C 32% 1018 hPa 0 mm - 586 W/m² -
1788624045 22.22° C 31% 1018 hPa 0 mm - 573 W/m² -
1788623740 22.22° C 31% 1017.9 hPa 0 mm - 567 W/m² -
1788623438 21.67° C 32% 1018.2 hPa 0 mm - 587 W/m² -
1788623134 21.67° C 33% 1017.8 hPa 0 mm - 587 W/m² -
1788622829 21.11° C 34% 1018.4 hPa 0 mm - 530 W/m² -
1788622525 20.56° C 36% 1018 hPa 0 mm - 483 W/m² -
1788622225 20.56° C 36% 1018.2 hPa 0 mm - 470 W/m² -
1788621920 20.56° C 36% 1018.1 hPa 0 mm - 447 W/m² -
1788621615 20.56° C 36% 1018.2 hPa 0 mm - 432 W/m² -
1788621310 20° C 37% 1018.5 hPa 0 mm - 415 W/m² -
1788621005 20° C 38% 1018.2 hPa 0 mm - 398 W/m² -
1788620711 19.44° C 38% 1018.1 hPa 0 mm - 379 W/m² -
1788620397 18.89° C 39% 1018.4 hPa 0 mm - 367 W/m² -
1788620092 18.89° C 40% 1017.9 hPa 0 mm - 339 W/m² -

* Rain latest hour (hover to see other rain measurements)
** Current wind speed in m/s (hover to see current wind gust speed)